createdAt,value
2023-05-21T00:00:16.995Z,28.05
2023-05-21T00:00:47.115Z,28.06
2023-05-21T00:01:17.100Z,28.08
2023-05-21T00:01:47.229Z,28.02
2023-05-21T00:02:17.254Z,28.04
2023-05-21T00:02:47.324Z,28.05
2023-05-21T00:03:17.310Z,28.08
2023-05-21T00:03:47.489Z,28.05
2023-05-21T00:04:17.454Z,28.04
2023-05-21T00:04:47.425Z,28.05
2023-05-21T00:05:47.620Z,28.04
2023-05-21T00:06:17.653Z,28.04
2023-05-21T00:06:47.650Z,28.04
2023-05-21T00:07:17.641Z,28.02
2023-05-21T00:07:47.760Z,28.04
2023-05-21T00:08:17.882Z,28.05
2023-05-21T00:08:47.884Z,28.01
2023-05-21T00:09:17.992Z,28.02
2023-05-21T00:09:48.124Z,28.01
2023-05-21T00:10:18.106Z,28.01
2023-05-21T00:10:48.241Z,28.01
2023-05-21T00:11:18.252Z,28.02
2023-05-21T00:12:18.328Z,28.04
2023-05-21T00:12:48.446Z,28.02
2023-05-21T00:13:18.560Z,28.02
2023-05-21T00:13:48.675Z,27.99
2023-05-21T00:14:18.796Z,28.04
2023-05-21T00:14:48.788Z,28.02
2023-05-21T00:15:48.882Z,28.04
2023-05-21T00:16:19.068Z,28.02
2023-05-21T00:16:49.075Z,28.04
2023-05-21T00:17:19.034Z,28.04
2023-05-21T00:17:49.075Z,28.04
2023-05-21T00:18:19.173Z,28.04
2023-05-21T00:18:49.254Z,28.02
2023-05-21T00:19:19.366Z,28.02
2023-05-21T00:19:49.364Z,28.02
2023-05-21T00:20:19.428Z,28.01
2023-05-21T00:20:49.532Z,28.02
2023-05-21T00:21:19.608Z,28.01
2023-05-21T00:21:49.681Z,28.02
2023-05-21T00:22:19.762Z,28.02
2023-05-21T00:22:49.844Z,28.02
2023-05-21T00:23:19.932Z,28.04
2023-05-21T00:23:50.016Z,28.04
2023-05-21T00:24:20.094Z,28.02
2023-05-21T00:24:50.184Z,27.98
2023-05-21T00:25:20.281Z,28.01
2023-05-21T00:25:50.374Z,28.01
2023-05-21T00:26:20.452Z,28.02
2023-05-21T00:26:50.554Z,28.01
2023-05-21T00:27:20.548Z,27.99
2023-05-21T00:28:20.608Z,27.99
2023-05-21T00:28:50.725Z,27.98
2023-05-21T00:29:20.731Z,27.99
2023-05-21T00:29:50.859Z,28.01
2023-05-21T00:30:20.856Z,28.01
2023-05-21T00:30:50.841Z,28.01
2023-05-21T00:31:21.021Z,27.99
2023-05-21T00:31:51.081Z,28.01
2023-05-21T00:32:21.113Z,27.99
2023-05-21T00:32:51.257Z,28.01
2023-05-21T00:33:21.302Z,28.01
2023-05-21T00:33:51.416Z,27.99
2023-05-21T00:34:21.441Z,28.01
2023-05-21T00:34:51.432Z,27.99
2023-05-21T00:35:21.564Z,27.98
2023-05-21T00:35:51.540Z,27.98
2023-05-21T00:36:51.609Z,27.99
2023-05-21T00:37:21.601Z,27.99
2023-05-21T00:37:51.722Z,27.98
2023-05-21T00:38:21.719Z,27.99
2023-05-21T00:38:51.725Z,27.98
2023-05-21T00:39:21.743Z,27.98
2023-05-21T00:39:51.734Z,27.96
2023-05-21T00:40:51.806Z,27.99
2023-05-21T00:41:21.798Z,27.98
2023-05-21T00:41:51.911Z,27.99
2023-05-21T00:42:21.911Z,27.96
2023-05-21T00:42:51.930Z,27.98
2023-05-21T00:43:22.054Z,27.98
2023-05-21T00:43:52.069Z,27.99
2023-05-21T00:44:22.102Z,27.98
2023-05-21T00:44:52.094Z,27.96
2023-05-21T00:45:22.089Z,27.99
2023-05-21T00:46:22.259Z,27.98
2023-05-21T00:46:52.247Z,27.96
2023-05-21T00:47:22.428Z,27.96
2023-05-21T00:47:52.488Z,27.96
2023-05-21T00:48:22.550Z,27.98
2023-05-21T00:48:52.578Z,27.98
2023-05-21T00:49:52.640Z,27.96
2023-05-21T00:50:22.636Z,27.98
2023-05-21T00:50:52.660Z,27.98
2023-05-21T00:51:22.639Z,27.98
2023-05-21T00:51:52.758Z,27.95
2023-05-21T00:52:22.761Z,27.98
2023-05-21T00:52:52.892Z,27.96
2023-05-21T00:53:22.892Z,27.96
2023-05-21T00:53:52.930Z,27.96
2023-05-21T00:54:22.919Z,27.95
2023-05-21T00:54:53.058Z,27.99
2023-05-21T00:55:23.053Z,27.98
2023-05-21T00:56:23.116Z,27.96
2023-05-21T00:56:53.118Z,27.98
2023-05-21T00:57:23.118Z,27.99
2023-05-21T00:57:53.130Z,27.96
2023-05-21T00:58:53.206Z,27.95
2023-05-21T00:59:23.324Z,27.96
2023-05-21T00:59:53.446Z,27.98
2023-05-21T01:00:23.439Z,27.93
2023-05-21T01:01:23.535Z,27.96
2023-05-21T01:01:53.634Z,27.95
2023-05-21T01:02:23.729Z,27.95
2023-05-21T01:03:23.977Z,27.93
2023-05-21T01:03:53.720Z,27.95
2023-05-21T01:04:23.725Z,27.96
2023-05-21T01:04:53.833Z,27.96
2023-05-21T01:05:23.824Z,27.96
2023-05-21T01:05:53.953Z,27.95
2023-05-21T01:06:23.969Z,27.95
2023-05-21T01:06:54.083Z,27.93
2023-05-21T01:07:24.085Z,27.95
2023-05-21T01:07:54.194Z,27.95
2023-05-21T01:08:24.313Z,27.95
2023-05-21T01:08:54.433Z,27.95
2023-05-21T01:09:24.428Z,27.95
2023-05-21T01:10:24.532Z,27.93
2023-05-21T01:10:54.644Z,27.93
2023-05-21T01:11:24.656Z,27.95
2023-05-21T01:11:54.647Z,27.93
2023-05-21T01:12:54.728Z,27.93
2023-05-21T01:13:24.735Z,27.93
2023-05-21T01:14:24.838Z,27.93
2023-05-21T01:14:54.830Z,27.95
2023-05-21T01:15:24.825Z,27.93
2023-05-21T01:15:54.959Z,27.92
2023-05-21T01:16:25.032Z,27.93
2023-05-21T01:16:55.059Z,27.93
2023-05-21T01:17:25.021Z,27.92
2023-05-21T01:17:55.181Z,27.93
2023-05-21T01:18:25.159Z,27.92
2023-05-21T01:18:55.246Z,27.93
2023-05-21T01:19:25.311Z,27.91
2023-05-21T01:19:55.258Z,27.93
2023-05-21T01:20:25.356Z,27.93
2023-05-21T01:20:55.444Z,27.92
2023-05-21T01:21:25.552Z,27.93
2023-05-21T01:21:55.631Z,27.92
2023-05-21T01:22:25.716Z,27.92
2023-05-21T01:22:55.890Z,27.91
2023-05-21T01:23:25.848Z,27.92
2023-05-21T01:23:55.922Z,27.93
2023-05-21T01:24:26.012Z,27.89
2023-05-21T01:24:56.083Z,27.92
2023-05-21T01:25:26.196Z,27.92
2023-05-21T01:25:56.261Z,27.91
2023-05-21T01:26:26.345Z,27.93
2023-05-21T01:26:56.445Z,27.93
2023-05-21T01:27:26.446Z,27.91
2023-05-21T01:27:56.562Z,27.93
2023-05-21T01:28:26.682Z,27.91
2023-05-21T01:28:56.680Z,27.91
2023-05-21T01:29:26.788Z,27.91
2023-05-21T01:29:56.917Z,27.89
2023-05-21T01:30:26.908Z,27.91
2023-05-21T01:31:26.993Z,27.89
2023-05-21T01:31:56.989Z,27.92
2023-05-21T01:32:27.160Z,27.92
2023-05-21T01:32:57.194Z,27.92
2023-05-21T01:33:27.336Z,27.89
2023-05-21T01:33:57.420Z,27.92
2023-05-21T01:34:27.468Z,27.91
2023-05-21T01:34:57.478Z,27.89
2023-05-21T01:35:27.471Z,27.88
2023-05-21T01:35:57.585Z,27.89
2023-05-21T01:36:27.646Z,27.88
2023-05-21T01:36:57.660Z,27.89
2023-05-21T01:37:27.754Z,27.89
2023-05-21T01:37:57.865Z,27.91
2023-05-21T01:38:27.988Z,27.91
2023-05-21T01:38:57.977Z,27.89
2023-05-21T01:39:28.116Z,27.89
2023-05-21T01:39:58.100Z,27.91
2023-05-21T01:40:28.103Z,27.91
2023-05-21T01:40:58.093Z,27.91
2023-05-21T01:41:28.215Z,27.88
2023-05-21T01:41:58.332Z,27.91
2023-05-21T01:42:28.450Z,27.92
2023-05-21T01:42:58.565Z,27.91
2023-05-21T01:43:28.682Z,27.91
2023-05-21T01:43:58.805Z,27.89
2023-05-21T01:44:28.805Z,27.91
2023-05-21T01:44:58.801Z,27.89
2023-05-21T01:45:58.909Z,27.91
2023-05-21T01:46:28.971Z,27.89
2023-05-21T01:46:58.956Z,27.88
2023-05-21T01:47:29.087Z,27.88
2023-05-21T01:47:59.154Z,27.89
2023-05-21T01:48:29.196Z,27.88
2023-05-21T01:48:59.210Z,27.91
2023-05-21T01:49:59.300Z,27.87
2023-05-21T01:50:29.408Z,27.89
2023-05-21T01:50:59.392Z,27.87
2023-05-21T01:51:29.537Z,27.88
2023-05-21T01:51:59.515Z,27.89
2023-05-21T01:52:29.662Z,27.87
2023-05-21T01:52:59.756Z,27.89
2023-05-21T01:53:29.762Z,27.89
2023-05-21T01:53:59.749Z,27.88
2023-05-21T01:54:59.846Z,27.88
2023-05-21T01:55:29.832Z,27.87
2023-05-21T01:55:59.944Z,27.87
2023-05-21T01:56:29.964Z,27.87
2023-05-21T01:57:00.056Z,27.88
2023-05-21T01:57:30.194Z,27.89
2023-05-21T01:58:02.247Z,27.91
2023-05-21T01:58:30.241Z,27.88
2023-05-21T01:59:00.375Z,27.91
2023-05-21T01:59:30.363Z,27.88
2023-05-21T02:00:30.444Z,27.88
2023-05-21T02:01:00.566Z,27.88
2023-05-21T02:01:30.798Z,27.88
2023-05-21T02:02:00.887Z,27.87
2023-05-21T02:02:30.895Z,27.88
2023-05-21T02:03:01.008Z,27.88
2023-05-21T02:03:31.149Z,27.88
2023-05-21T02:04:01.047Z,27.91
2023-05-21T02:04:31.024Z,27.88
2023-05-21T02:05:01.149Z,27.88
2023-05-21T02:05:31.148Z,27.88
2023-05-21T02:06:01.261Z,27.88
2023-05-21T02:06:31.372Z,27.85
2023-05-21T02:07:01.500Z,27.85
2023-05-21T02:07:31.531Z,27.85
2023-05-21T02:08:31.587Z,27.87
2023-05-21T02:09:01.581Z,27.85
2023-05-21T02:09:31.694Z,27.87
2023-05-21T02:10:01.693Z,27.85
2023-05-21T02:10:31.835Z,27.87
2023-05-21T02:11:01.810Z,27.85
2023-05-21T02:11:31.956Z,27.85
2023-05-21T02:12:01.967Z,27.87
2023-05-21T02:12:31.960Z,27.85
2023-05-21T02:13:02.098Z,27.84
2023-05-21T02:13:32.191Z,27.87
2023-05-21T02:14:02.188Z,27.84
2023-05-21T02:14:32.309Z,27.87
2023-05-21T02:15:02.424Z,27.84
2023-05-21T02:15:32.541Z,27.82
2023-05-21T02:16:02.598Z,27.84
2023-05-21T02:16:32.670Z,27.84
2023-05-21T02:17:02.739Z,27.84
2023-05-21T02:17:32.930Z,27.84
2023-05-21T02:18:02.931Z,27.84
2023-05-21T02:18:32.991Z,27.82
2023-05-21T02:19:03.092Z,27.84
2023-05-21T02:19:33.138Z,27.82
2023-05-21T02:20:03.129Z,27.85
2023-05-21T02:20:33.222Z,27.82
2023-05-21T02:21:03.300Z,27.82
2023-05-21T02:21:33.378Z,27.84
2023-05-21T02:22:03.467Z,27.81
2023-05-21T02:22:33.537Z,27.84
2023-05-21T02:23:03.652Z,27.84
2023-05-21T02:23:33.705Z,27.85
2023-05-21T02:24:03.804Z,27.84
2023-05-21T02:24:33.882Z,27.85
2023-05-21T02:25:03.973Z,27.82
2023-05-21T02:25:34.284Z,27.84
2023-05-21T02:26:04.043Z,27.81
2023-05-21T02:26:34.124Z,27.82
2023-05-21T02:27:04.237Z,27.82
2023-05-21T02:27:34.363Z,27.84
2023-05-21T02:28:04.350Z,27.81
2023-05-21T02:28:34.480Z,27.82
2023-05-21T02:29:04.583Z,27.79
2023-05-21T02:29:34.583Z,27.82
2023-05-21T02:30:04.595Z,27.82
2023-05-21T02:30:34.611Z,27.82
2023-05-21T02:31:04.600Z,27.84
2023-05-21T02:32:04.664Z,27.84
2023-05-21T02:32:34.672Z,27.84
2023-05-21T02:33:04.870Z,27.84
2023-05-21T02:33:34.918Z,27.82
2023-05-21T02:34:04.972Z,27.81
2023-05-21T02:34:35.015Z,27.82
2023-05-21T02:35:05.079Z,27.81
2023-05-21T02:35:35.448Z,27.84
2023-05-21T02:36:05.166Z,27.84
2023-05-21T02:36:35.266Z,27.82
2023-05-21T02:37:05.271Z,27.82
2023-05-21T02:37:35.402Z,27.81
2023-05-21T02:38:05.499Z,27.82
2023-05-21T02:38:35.526Z,27.81
2023-05-21T02:39:35.579Z,27.82
2023-05-21T02:40:05.576Z,27.81
2023-05-21T02:41:05.669Z,27.82
2023-05-21T02:41:35.671Z,27.81
2023-05-21T02:42:35.733Z,27.82
2023-05-21T02:43:05.726Z,27.81
2023-05-21T02:43:35.847Z,27.82
2023-05-21T02:44:05.879Z,27.79
2023-05-21T02:44:35.881Z,27.81
2023-05-21T02:45:05.880Z,27.79
2023-05-21T02:45:36.225Z,27.81
2023-05-21T02:46:06.088Z,27.81
2023-05-21T02:46:36.026Z,27.79
2023-05-21T02:47:06.030Z,27.78
2023-05-21T02:48:06.148Z,27.81
2023-05-21T02:48:36.219Z,27.79
2023-05-21T02:49:06.224Z,27.81
2023-05-21T02:50:06.291Z,27.81
2023-05-21T02:50:36.293Z,27.81
2023-05-21T02:51:36.378Z,27.78
2023-05-21T02:52:06.489Z,27.79
2023-05-21T02:52:36.495Z,27.78
2023-05-21T02:53:06.603Z,27.79
2023-05-21T02:53:36.741Z,27.79
2023-05-21T02:54:06.800Z,27.78
2023-05-21T02:54:36.771Z,27.78
2023-05-21T02:55:06.892Z,27.78
2023-05-21T02:55:37.107Z,27.81
2023-05-21T02:56:06.921Z,27.78
2023-05-21T02:56:37.032Z,27.78
2023-05-21T02:57:07.028Z,27.77
2023-05-21T02:58:07.114Z,27.79
2023-05-21T02:58:37.246Z,27.78
2023-05-21T02:59:07.226Z,27.81
2023-05-21T02:59:37.231Z,27.77
2023-05-21T03:00:07.224Z,27.77
2023-05-21T03:00:37.336Z,27.81
2023-05-21T03:01:07.359Z,27.78
2023-05-21T03:01:37.354Z,27.78
2023-05-21T03:02:07.407Z,27.77
2023-05-21T03:02:37.537Z,27.77
2023-05-21T03:03:07.622Z,27.77
2023-05-21T03:03:37.632Z,27.78
2023-05-21T03:04:07.638Z,27.75
2023-05-21T03:04:37.754Z,27.78
2023-05-21T03:05:07.873Z,27.78
2023-05-21T03:05:38.164Z,27.75
2023-05-21T03:06:07.957Z,27.77
2023-05-21T03:06:37.965Z,27.77
2023-05-21T03:07:08.085Z,27.77
2023-05-21T03:07:38.113Z,27.75
2023-05-21T03:08:08.135Z,27.77
2023-05-21T03:08:38.253Z,27.77
2023-05-21T03:09:08.248Z,27.75
2023-05-21T03:09:38.841Z,27.75
2023-05-21T03:10:08.439Z,27.75
2023-05-21T03:11:08.625Z,27.75
2023-05-21T03:11:38.746Z,27.74
2023-05-21T03:12:08.748Z,27.75
2023-05-21T03:13:09.928Z,27.75
2023-05-21T03:13:38.998Z,27.74
2023-05-21T03:14:09.004Z,27.75
2023-05-21T03:14:39.128Z,27.75
2023-05-21T03:15:09.120Z,27.75
2023-05-21T03:16:09.197Z,27.75
2023-05-21T03:16:39.345Z,27.74
2023-05-21T03:17:09.429Z,27.77
2023-05-21T03:17:39.481Z,27.74
2023-05-21T03:18:09.567Z,27.75
2023-05-21T03:18:39.487Z,27.74
2023-05-21T03:19:09.610Z,27.75
2023-05-21T03:19:39.670Z,27.75
2023-05-21T03:20:09.762Z,27.77
2023-05-21T03:20:39.844Z,27.75
2023-05-21T03:21:09.921Z,27.74
2023-05-21T03:21:40.031Z,27.77
2023-05-21T03:22:10.021Z,27.75
2023-05-21T03:22:40.100Z,27.74
2023-05-21T03:23:10.174Z,27.75
2023-05-21T03:23:40.260Z,27.75
2023-05-21T03:24:10.341Z,27.74
2023-05-21T03:24:40.422Z,27.75
2023-05-21T03:25:10.528Z,27.75
2023-05-21T03:25:40.580Z,27.74
2023-05-21T03:26:10.672Z,27.75
2023-05-21T03:26:40.761Z,27.75
2023-05-21T03:27:10.781Z,27.74
2023-05-21T03:27:40.908Z,27.72
2023-05-21T03:28:11.030Z,27.72
2023-05-21T03:28:41.130Z,27.74
2023-05-21T03:29:11.243Z,27.74
2023-05-21T03:29:41.367Z,27.72
2023-05-21T03:30:11.477Z,27.75
2023-05-21T03:30:41.506Z,27.75
2023-05-21T03:31:11.509Z,27.75
2023-05-21T03:32:11.602Z,27.71
2023-05-21T03:32:41.682Z,27.72
2023-05-21T03:33:11.699Z,27.72
2023-05-21T03:33:41.680Z,27.72
2023-05-21T03:34:11.682Z,27.74
2023-05-21T03:35:11.818Z,27.75
2023-05-21T03:35:41.814Z,27.74
2023-05-21T03:36:11.816Z,27.74
2023-05-21T03:36:41.934Z,27.74
2023-05-21T03:37:11.940Z,27.72
2023-05-21T03:37:42.060Z,27.72
2023-05-21T03:38:12.184Z,27.74
2023-05-21T03:38:42.286Z,27.74
2023-05-21T03:39:12.405Z,27.72
2023-05-21T03:39:42.522Z,27.74
2023-05-21T03:40:12.648Z,27.74
2023-05-21T03:40:42.791Z,27.72
2023-05-21T03:41:12.631Z,27.72
2023-05-21T03:41:42.767Z,27.72
2023-05-21T03:42:12.869Z,27.71
2023-05-21T03:42:42.862Z,27.72
2023-05-21T03:43:42.936Z,27.69
2023-05-21T03:44:12.930Z,27.71
2023-05-21T03:44:43.060Z,27.68
2023-05-21T03:45:13.056Z,27.69
2023-05-21T03:46:13.169Z,27.71
2023-05-21T03:46:43.166Z,27.72
2023-05-21T03:47:13.171Z,27.68
2023-05-21T03:47:43.236Z,27.68
2023-05-21T03:48:13.230Z,27.68
2023-05-21T03:48:43.346Z,27.71
2023-05-21T03:49:13.396Z,27.71
2023-05-21T03:49:43.390Z,27.71
2023-05-21T03:50:13.372Z,27.71
2023-05-21T03:51:13.447Z,27.71
2023-05-21T03:51:43.431Z,27.68
2023-05-21T03:52:43.554Z,27.71
2023-05-21T03:53:13.548Z,27.69
2023-05-21T03:53:43.661Z,27.74
2023-05-21T03:54:13.798Z,27.71
2023-05-21T03:54:43.798Z,27.67
2023-05-21T03:55:13.797Z,27.69
2023-05-21T03:55:43.916Z,27.69
2023-05-21T03:56:14.058Z,27.69
2023-05-21T03:56:44.037Z,27.68
2023-05-21T03:57:44.108Z,27.67
2023-05-21T03:58:14.102Z,27.68
2023-05-21T03:58:44.115Z,27.68
2023-05-21T03:59:14.115Z,27.67
2023-05-21T03:59:44.104Z,27.69
2023-05-21T04:00:14.120Z,27.68
2023-05-21T04:00:44.109Z,27.68
2023-05-21T04:01:14.223Z,27.67
2023-05-21T04:01:44.219Z,27.67
2023-05-21T04:02:44.368Z,27.69
2023-05-21T04:03:14.532Z,27.68
2023-05-21T04:03:44.728Z,27.67
2023-05-21T04:04:14.713Z,27.69
2023-05-21T04:04:44.661Z,27.69
2023-05-21T04:05:14.654Z,27.68
2023-05-21T04:05:44.766Z,27.67
2023-05-21T04:06:14.885Z,27.68
2023-05-21T04:06:45.010Z,27.69
2023-05-21T04:07:15.018Z,27.68
2023-05-21T04:07:45.117Z,27.67
2023-05-21T04:08:15.246Z,27.67
2023-05-21T04:08:45.245Z,27.67
2023-05-21T04:09:45.322Z,27.65
2023-05-21T04:10:15.450Z,27.68
2023-05-21T04:10:45.433Z,27.65
2023-05-21T04:11:15.574Z,27.67
2023-05-21T04:11:45.642Z,27.68
2023-05-21T04:12:15.640Z,27.65
2023-05-21T04:12:45.661Z,27.67
2023-05-21T04:13:15.670Z,27.68
2023-05-21T04:14:15.735Z,27.67
2023-05-21T04:14:45.850Z,27.65
2023-05-21T04:15:15.842Z,27.67
2023-05-21T04:15:46.006Z,27.64
2023-05-21T04:16:16.036Z,27.68
2023-05-21T04:16:46.003Z,27.69
2023-05-21T04:17:16.078Z,27.67
2023-05-21T04:17:46.206Z,27.65
2023-05-21T04:18:16.174Z,27.67
2023-05-21T04:18:46.322Z,27.68
2023-05-21T04:19:16.347Z,27.65
2023-05-21T04:19:46.351Z,27.67
2023-05-21T04:20:16.431Z,27.67
2023-05-21T04:20:46.511Z,27.67
2023-05-21T04:21:16.645Z,27.67
2023-05-21T04:21:46.705Z,27.65
2023-05-21T04:22:16.789Z,27.64
2023-05-21T04:22:46.874Z,27.64
2023-05-21T04:23:16.953Z,27.64
2023-05-21T04:23:47.037Z,27.65
2023-05-21T04:24:17.115Z,27.64
2023-05-21T04:24:47.191Z,27.65
2023-05-21T04:25:17.273Z,27.65
2023-05-21T04:25:47.358Z,27.65
2023-05-21T04:26:17.460Z,27.67
2023-05-21T04:26:47.550Z,27.65
2023-05-21T04:27:17.544Z,27.65
2023-05-21T04:28:17.627Z,27.65
2023-05-21T04:28:47.620Z,27.65
2023-05-21T04:29:17.736Z,27.65
2023-05-21T04:29:49.008Z,27.64
2023-05-21T04:30:47.805Z,27.67
2023-05-21T04:31:17.869Z,27.62
2023-05-21T04:31:47.942Z,27.67
2023-05-21T04:32:17.933Z,27.65
2023-05-21T04:32:47.919Z,27.64
2023-05-21T04:33:18.499Z,27.64
2023-05-21T04:33:48.116Z,27.62
2023-05-21T04:34:18.120Z,27.65
2023-05-21T04:34:48.229Z,27.67
2023-05-21T04:35:18.229Z,27.64
2023-05-21T04:36:18.317Z,27.67
2023-05-21T04:36:48.307Z,27.67
2023-05-21T04:37:48.378Z,27.67
2023-05-21T04:38:18.494Z,27.64
2023-05-21T04:38:48.616Z,27.67
2023-05-21T04:39:18.731Z,27.62
2023-05-21T04:39:48.844Z,27.64
2023-05-21T04:40:18.839Z,27.62
2023-05-21T04:40:48.853Z,27.62
2023-05-21T04:41:18.938Z,27.64
2023-05-21T04:41:48.932Z,27.62
2023-05-21T04:42:18.905Z,27.64
2023-05-21T04:42:49.018Z,27.62
2023-05-21T04:43:19.143Z,27.65
2023-05-21T04:43:49.145Z,27.64
2023-05-21T04:44:19.265Z,27.61
2023-05-21T04:44:49.385Z,27.62
2023-05-21T04:45:19.500Z,27.65
2023-05-21T04:45:49.531Z,27.62
2023-05-21T04:46:19.533Z,27.60
2023-05-21T04:47:19.600Z,27.61
2023-05-21T04:47:49.733Z,27.62
2023-05-21T04:48:19.805Z,27.62
2023-05-21T04:48:49.796Z,27.64
2023-05-21T04:49:19.911Z,27.62
2023-05-21T04:49:50.026Z,27.61
2023-05-21T04:50:20.145Z,27.60
2023-05-21T04:50:50.150Z,27.64
2023-05-21T04:51:50.224Z,27.61
2023-05-21T04:52:20.343Z,27.62
2023-05-21T04:52:50.460Z,27.62
2023-05-21T04:53:20.581Z,27.62
2023-05-21T04:53:50.690Z,27.60
2023-05-21T04:54:20.705Z,27.61
2023-05-21T04:54:50.692Z,27.61
2023-05-21T04:55:50.791Z,27.64
2023-05-21T04:56:20.780Z,27.62
2023-05-21T04:56:50.914Z,27.62
2023-05-21T04:57:20.895Z,27.62
2023-05-21T04:58:20.971Z,27.61
2023-05-21T04:58:50.963Z,27.62
2023-05-21T04:59:51.076Z,27.62
2023-05-21T05:00:21.062Z,27.62
2023-05-21T05:01:21.209Z,27.62
2023-05-21T05:01:51.138Z,27.62
2023-05-21T05:02:21.160Z,27.64
2023-05-21T05:02:51.356Z,27.61
2023-05-21T05:03:21.341Z,27.61
2023-05-21T05:03:51.418Z,27.61
2023-05-21T05:04:21.448Z,27.61
2023-05-21T05:04:51.446Z,27.61
2023-05-21T05:05:51.521Z,27.61
2023-05-21T05:06:21.656Z,27.64
2023-05-21T05:06:51.681Z,27.62
2023-05-21T05:07:21.792Z,27.61
2023-05-21T05:07:51.791Z,27.61
2023-05-21T05:08:21.908Z,27.61
2023-05-21T05:08:51.923Z,27.62
2023-05-21T05:09:21.906Z,27.60
2023-05-21T05:10:21.982Z,27.61
2023-05-21T05:10:52.106Z,27.61
2023-05-21T05:11:22.262Z,27.60
2023-05-21T05:11:52.247Z,27.60
2023-05-21T05:12:22.389Z,27.60
2023-05-21T05:12:52.360Z,27.60
2023-05-21T05:13:22.489Z,27.60
2023-05-21T05:13:52.556Z,27.60
2023-05-21T05:14:22.532Z,27.60
2023-05-21T05:14:52.646Z,27.61
2023-05-21T05:15:22.758Z,27.61
2023-05-21T05:15:54.586Z,27.60
2023-05-21T05:16:22.903Z,27.61
2023-05-21T05:16:52.984Z,27.61
2023-05-21T05:17:23.044Z,27.62
2023-05-21T05:18:31.970Z,27.58
2023-05-21T05:19:02.092Z,27.57
2023-05-21T05:19:32.148Z,27.54
2023-05-21T05:20:02.128Z,27.56
2023-05-21T05:20:32.222Z,27.57
2023-05-21T05:21:02.311Z,27.56
2023-05-21T05:21:32.366Z,27.58
2023-05-21T05:22:02.482Z,27.56
2023-05-21T05:22:32.547Z,27.56
2023-05-21T05:23:02.632Z,27.53
2023-05-21T05:23:32.728Z,27.57
2023-05-21T05:24:02.792Z,27.56
2023-05-21T05:24:32.893Z,27.57
2023-05-21T05:25:02.975Z,27.56
2023-05-21T05:25:33.050Z,27.53
2023-05-21T05:26:03.139Z,27.56
2023-05-21T05:26:33.235Z,27.54
2023-05-21T05:27:03.289Z,27.56
2023-05-21T05:27:33.394Z,27.53
2023-05-21T05:28:03.462Z,27.56
2023-05-21T05:28:33.477Z,27.54
2023-05-21T05:29:33.576Z,27.57
2023-05-21T05:30:03.694Z,27.54
2023-05-21T05:30:33.701Z,27.54
2023-05-21T05:31:03.861Z,27.54
2023-05-21T05:31:33.879Z,27.57
2023-05-21T05:32:03.885Z,27.56
2023-05-21T05:32:33.914Z,27.56
2023-05-21T05:33:03.976Z,27.56
2023-05-21T05:33:33.954Z,27.56
2023-05-21T05:34:04.067Z,27.56
2023-05-21T05:34:34.190Z,27.56
2023-05-21T05:35:04.196Z,27.57
2023-05-21T05:35:34.527Z,27.57
2023-05-21T05:36:04.332Z,27.58
2023-05-21T05:36:34.467Z,27.57
2023-05-21T05:37:04.475Z,27.56
2023-05-21T05:37:34.468Z,27.57
2023-05-21T05:38:04.586Z,27.58
2023-05-21T05:38:34.703Z,27.57
2023-05-21T05:39:04.830Z,27.57
2023-05-21T05:39:34.825Z,27.56
2023-05-21T05:40:34.901Z,27.56
2023-05-21T05:41:05.019Z,27.57
2023-05-21T05:41:35.153Z,27.57
2023-05-21T05:42:05.160Z,27.53
2023-05-21T05:42:35.158Z,27.57
2023-05-21T05:43:05.286Z,27.56
2023-05-21T05:43:35.261Z,27.60
2023-05-21T05:44:35.345Z,27.57
2023-05-21T05:45:05.334Z,27.57
2023-05-21T05:45:35.718Z,27.58
2023-05-21T05:46:05.497Z,27.58
2023-05-21T05:46:35.605Z,27.56
2023-05-21T05:47:05.547Z,27.57
2023-05-21T05:47:35.579Z,27.57
2023-05-21T05:48:05.601Z,27.56
2023-05-21T05:48:35.602Z,27.60
2023-05-21T05:49:05.593Z,27.57
2023-05-21T05:49:35.712Z,27.58
2023-05-21T05:50:05.704Z,27.58
2023-05-21T05:50:35.830Z,27.60
2023-05-21T05:51:05.848Z,27.58
2023-05-21T05:52:05.925Z,27.58
2023-05-21T05:52:35.913Z,27.58
2023-05-21T05:53:06.031Z,27.58
2023-05-21T05:53:36.144Z,27.57
2023-05-21T05:54:06.149Z,27.58
2023-05-21T05:54:36.281Z,27.57
2023-05-21T05:55:06.262Z,27.61
2023-05-21T05:55:36.710Z,27.58
2023-05-21T05:56:06.476Z,27.57
2023-05-21T05:56:36.602Z,27.60
2023-05-21T05:57:06.619Z,27.58
2023-05-21T05:57:36.712Z,27.57
2023-05-21T05:58:06.706Z,27.57
2023-05-21T05:58:36.845Z,27.57
2023-05-21T05:59:06.832Z,27.57
2023-05-21T06:00:06.913Z,27.57
2023-05-21T06:00:36.920Z,27.57
2023-05-21T06:01:06.922Z,27.57
2023-05-21T06:01:37.038Z,27.61
2023-05-21T06:02:07.109Z,27.60
2023-05-21T06:02:37.242Z,27.56
2023-05-21T06:03:07.263Z,27.61
2023-05-21T06:03:37.372Z,27.60
2023-05-21T06:04:07.289Z,27.58
2023-05-21T06:04:37.436Z,27.58
2023-05-21T06:05:07.458Z,27.57
2023-05-21T06:05:37.822Z,27.57
2023-05-21T06:06:37.545Z,27.57
2023-05-21T06:07:07.539Z,27.57
2023-05-21T06:07:37.649Z,27.57
2023-05-21T06:08:07.765Z,27.58
2023-05-21T06:08:38.369Z,27.57
2023-05-21T06:09:07.804Z,27.56
2023-05-21T06:09:37.935Z,27.56
2023-05-21T06:10:07.970Z,27.57
2023-05-21T06:10:37.988Z,27.57
2023-05-21T06:11:07.971Z,27.58
2023-05-21T06:11:38.090Z,27.58
2023-05-21T06:12:09.559Z,27.57
2023-05-21T06:12:38.252Z,27.57
2023-05-21T06:13:08.246Z,27.58
2023-05-21T06:13:38.380Z,27.57
2023-05-21T06:14:08.492Z,27.57
2023-05-21T06:14:38.496Z,27.57
2023-05-21T06:15:08.489Z,27.60
2023-05-21T06:15:38.755Z,27.58
2023-05-21T06:16:08.528Z,27.60
2023-05-21T06:16:38.566Z,27.58
2023-05-21T06:17:08.492Z,27.54
2023-05-21T06:17:38.667Z,27.58
2023-05-21T06:18:08.691Z,27.58
2023-05-21T06:18:38.760Z,27.56
2023-05-21T06:19:08.740Z,27.57
2023-05-21T06:19:38.825Z,27.58
2023-05-21T06:20:08.899Z,27.57
2023-05-21T06:20:38.940Z,27.58
2023-05-21T06:21:09.018Z,27.57
2023-05-21T06:21:39.109Z,27.58
2023-05-21T06:22:09.193Z,27.58
2023-05-21T06:22:39.283Z,27.57
2023-05-21T06:23:09.344Z,27.60
2023-05-21T06:23:39.445Z,27.58
2023-05-21T06:24:09.549Z,27.58
2023-05-21T06:24:39.621Z,27.57
2023-05-21T06:25:09.725Z,27.58
2023-05-21T06:25:39.898Z,27.60
2023-05-21T06:26:09.890Z,27.58
2023-05-21T06:26:39.971Z,27.57
2023-05-21T06:27:10.052Z,27.58
2023-05-21T06:27:40.139Z,27.57
2023-05-21T06:28:10.231Z,27.57
2023-05-21T06:28:40.232Z,27.57
2023-05-21T06:29:10.228Z,27.56
2023-05-21T06:29:40.347Z,27.60
2023-05-21T06:30:10.330Z,27.60
2023-05-21T06:31:10.405Z,27.58
2023-05-21T06:31:40.405Z,27.57
2023-05-21T06:32:10.529Z,27.60
2023-05-21T06:32:40.794Z,27.57
2023-05-21T06:33:10.774Z,27.60
2023-05-21T06:33:40.971Z,27.60
2023-05-21T06:34:10.854Z,27.58
2023-05-21T06:34:40.877Z,27.60
2023-05-21T06:35:10.876Z,27.58
2023-05-21T06:36:10.957Z,27.58
2023-05-21T06:36:40.943Z,27.58
2023-05-21T06:37:11.066Z,27.58
2023-05-21T06:37:41.194Z,27.57
2023-05-21T06:38:11.187Z,27.58
2023-05-21T06:38:41.300Z,27.58
2023-05-21T06:39:11.414Z,27.57
2023-05-21T06:39:41.409Z,27.60
2023-05-21T06:40:41.496Z,27.58
2023-05-21T06:41:11.603Z,27.58
2023-05-21T06:41:41.599Z,27.60
2023-05-21T06:42:11.732Z,27.58
2023-05-21T06:42:41.725Z,27.58
2023-05-21T06:43:11.713Z,27.56
2023-05-21T06:43:41.829Z,27.57
2023-05-21T06:44:11.954Z,27.57
2023-05-21T06:44:41.942Z,27.60
2023-05-21T06:45:12.089Z,27.58
2023-05-21T06:45:42.244Z,27.57
2023-05-21T06:46:12.302Z,27.58
2023-05-21T06:46:42.335Z,27.57
2023-05-21T06:47:12.320Z,27.58
2023-05-21T06:48:12.509Z,27.57
2023-05-21T06:48:42.501Z,27.57
2023-05-21T06:49:14.144Z,27.56
2023-05-21T06:49:42.725Z,27.56
2023-05-21T06:50:12.713Z,27.57
2023-05-21T06:50:42.835Z,27.60
2023-05-21T06:51:12.838Z,27.57
2023-05-21T06:51:42.855Z,27.58
2023-05-21T06:52:42.908Z,27.57
2023-05-21T06:53:13.032Z,27.58
2023-05-21T06:53:43.141Z,27.60
2023-05-21T06:54:13.274Z,27.60
2023-05-21T06:54:43.374Z,27.58
2023-05-21T06:55:13.499Z,27.62
2023-05-21T06:55:43.608Z,27.61
2023-05-21T06:56:13.748Z,27.61
2023-05-21T06:56:43.738Z,27.58
2023-05-21T06:57:13.873Z,27.60
2023-05-21T06:57:43.845Z,27.61
2023-05-21T06:58:13.965Z,27.60
2023-05-21T06:58:44.074Z,27.60
2023-05-21T06:59:14.191Z,27.61
2023-05-21T06:59:44.217Z,27.58
2023-05-21T07:00:14.330Z,27.58